createdAt,value
2022-12-25T00:00:41.833Z,6.31
2022-12-25T00:03:08.709Z,6.39
2022-12-25T00:05:38.774Z,6.33
2022-12-25T00:08:06.608Z,6.32
2022-12-25T00:10:33.701Z,6.34
2022-12-25T00:13:00.219Z,6.43
2022-12-25T00:15:26.790Z,6.44
2022-12-25T00:17:53.303Z,6.48
2022-12-25T00:20:19.789Z,6.43
2022-12-25T00:22:46.449Z,6.48
2022-12-25T00:25:12.950Z,6.48
2022-12-25T00:27:39.443Z,6.50
2022-12-25T00:30:07.888Z,6.45
2022-12-25T00:32:37.577Z,6.51
2022-12-25T00:35:05.140Z,6.54
2022-12-25T00:37:31.666Z,6.55
2022-12-25T00:39:58.156Z,6.54
2022-12-25T00:42:26.887Z,6.50
2022-12-25T00:44:53.455Z,6.42
2022-12-25T00:47:20.028Z,6.25
2022-12-25T00:49:46.759Z,6.29
2022-12-25T00:52:13.314Z,6.39
2022-12-25T00:54:39.851Z,6.37
2022-12-25T00:57:06.374Z,6.38
2022-12-25T00:59:34.119Z,6.41
2022-12-25T01:02:21.390Z,6.42
2022-12-25T01:04:48.383Z,6.38
2022-12-25T01:07:16.869Z,6.39
2022-12-25T01:10:03.157Z,6.36
2022-12-25T01:12:30.546Z,6.34
2022-12-25T01:14:57.097Z,6.36
2022-12-25T01:17:23.641Z,6.37
2022-12-25T01:19:50.302Z,6.43
2022-12-25T01:22:16.823Z,6.34
2022-12-25T01:24:44.419Z,6.40
2022-12-25T01:27:11.624Z,6.42
2022-12-25T01:29:38.634Z,6.50
2022-12-25T01:32:06.160Z,6.44
2022-12-25T01:34:32.759Z,6.43
2022-12-25T01:36:59.300Z,6.47
2022-12-25T01:39:26.878Z,6.42
2022-12-25T01:41:53.370Z,6.46
2022-12-25T01:44:19.895Z,6.52
2022-12-25T01:46:46.377Z,6.44
2022-12-25T01:49:22.482Z,6.39
2022-12-25T01:52:00.672Z,6.41
2022-12-25T01:54:35.080Z,6.39
2022-12-25T01:57:06.596Z,6.43
2022-12-25T01:59:33.246Z,6.41
2022-12-25T02:02:00.339Z,6.34
2022-12-25T02:04:38.741Z,6.27
2022-12-25T02:07:16.840Z,6.29
2022-12-25T02:09:44.815Z,6.36
2022-12-25T02:12:18.429Z,6.38
2022-12-25T02:14:45.406Z,6.44
2022-12-25T02:17:27.373Z,6.43
2022-12-25T02:20:03.783Z,6.39
2022-12-25T02:22:39.534Z,6.38
2022-12-25T02:25:32.058Z,6.39
2022-12-25T02:27:58.486Z,6.37
2022-12-25T02:30:25.363Z,6.40
2022-12-25T02:33:20.361Z,6.45
2022-12-25T02:35:51.909Z,6.40
2022-12-25T02:38:33.050Z,6.27
2022-12-25T02:41:09.838Z,6.39
2022-12-25T02:44:01.650Z,6.30
2022-12-25T02:46:48.560Z,6.29
2022-12-25T02:49:41.826Z,6.35
2022-12-25T02:52:42.351Z,6.25
2022-12-25T02:55:34.749Z,6.29
2022-12-25T02:58:25.573Z,6.28
2022-12-25T03:01:23.394Z,6.32
2022-12-25T03:04:13.323Z,6.35
2022-12-25T03:06:46.395Z,6.45
2022-12-25T03:09:40.127Z,6.53
2022-12-25T03:12:48.455Z,6.48
2022-12-25T03:15:36.095Z,6.40
2022-12-25T03:18:06.895Z,6.38
2022-12-25T03:20:52.365Z,6.40
2022-12-25T03:23:40.227Z,6.42
2022-12-25T03:26:26.627Z,6.45
2022-12-25T03:28:55.528Z,6.44
2022-12-25T03:31:26.512Z,6.47
2022-12-25T03:34:45.666Z,6.53
2022-12-25T03:37:36.594Z,6.42
2022-12-25T03:41:12.895Z,6.34
2022-12-25T03:44:11.767Z,6.29
2022-12-25T03:47:14.773Z,6.32
2022-12-25T03:50:23.270Z,6.42
2022-12-25T03:53:11.333Z,6.47
2022-12-25T03:55:59.704Z,6.41
2022-12-25T03:58:46.273Z,6.31
2022-12-25T04:01:32.700Z,6.38
2022-12-25T04:04:17.912Z,6.37
2022-12-25T04:07:02.960Z,6.37
2022-12-25T04:09:48.096Z,6.39
2022-12-25T04:12:33.299Z,6.42
2022-12-25T04:15:18.250Z,6.40
2022-12-25T04:18:03.170Z,6.43
2022-12-25T04:20:48.166Z,6.46
2022-12-25T04:23:32.925Z,6.39
2022-12-25T04:26:18.402Z,6.45
2022-12-25T04:29:03.821Z,6.41
2022-12-25T04:31:48.662Z,6.39
2022-12-25T04:34:33.992Z,6.42
2022-12-25T04:37:00.539Z,6.42
2022-12-25T04:39:27.054Z,6.45
2022-12-25T04:41:53.593Z,6.42
2022-12-25T04:44:20.085Z,6.45
2022-12-25T04:46:46.717Z,6.43
2022-12-25T04:49:15.364Z,6.43
2022-12-25T04:51:41.946Z,6.44
2022-12-25T04:54:08.529Z,6.46
2022-12-25T04:56:40.065Z,6.52
2022-12-25T04:59:10.153Z,6.42
2022-12-25T05:01:36.772Z,6.38
2022-12-25T05:04:03.440Z,6.39
2022-12-25T05:06:30.010Z,6.39
2022-12-25T05:08:56.528Z,6.43
2022-12-25T05:11:23.177Z,6.32
2022-12-25T05:13:49.786Z,6.39
2022-12-25T05:16:19.785Z,6.41
2022-12-25T05:18:49.342Z,6.36
2022-12-25T05:21:15.891Z,6.36
2022-12-25T05:23:48.738Z,6.32
2022-12-25T05:26:18.240Z,6.33
2022-12-25T05:28:44.930Z,6.38
2022-12-25T05:31:11.640Z,6.37
2022-12-25T05:33:38.234Z,6.40
2022-12-25T05:36:07.180Z,6.39
2022-12-25T05:38:34.073Z,6.38
2022-12-25T05:41:01.284Z,6.38
2022-12-25T05:43:28.549Z,6.41
2022-12-25T05:45:55.163Z,6.42
2022-12-25T05:48:21.671Z,6.43
2022-12-25T05:50:48.269Z,6.34
2022-12-25T05:53:17.278Z,6.40
2022-12-25T05:55:43.791Z,6.42
2022-12-25T05:58:11.858Z,6.34
2022-12-25T06:00:39.055Z,6.29
2022-12-25T06:03:05.707Z,6.29
2022-12-25T06:05:32.615Z,6.29
2022-12-25T06:07:59.124Z,6.25
2022-12-25T06:10:25.657Z,6.20
2022-12-25T06:12:52.133Z,6.20
2022-12-25T06:15:18.721Z,6.11
2022-12-25T06:17:45.297Z,6.09
2022-12-25T06:20:11.862Z,6.04
2022-12-25T06:22:38.360Z,5.93
2022-12-25T06:25:05.322Z,5.88
2022-12-25T06:27:31.833Z,5.85
2022-12-25T06:29:58.404Z,5.85
2022-12-25T06:32:24.908Z,5.77
2022-12-25T06:34:51.488Z,5.73
2022-12-25T06:37:18.031Z,5.75
2022-12-25T06:39:44.571Z,5.75
2022-12-25T06:42:11.064Z,5.79
2022-12-25T06:44:38.071Z,5.77
2022-12-25T06:47:04.694Z,5.72
2022-12-25T06:49:31.279Z,5.71
2022-12-25T06:51:57.812Z,5.80
2022-12-25T06:54:24.362Z,5.87
2022-12-25T06:56:51.128Z,5.81
2022-12-25T06:59:17.669Z,5.71
2022-12-25T07:01:53.540Z,5.61
2022-12-25T07:04:22.998Z,5.54
2022-12-25T07:06:49.481Z,5.50
2022-12-25T07:09:16.052Z,5.50
2022-12-25T07:11:43.635Z,5.45
2022-12-25T07:14:23.743Z,5.43
2022-12-25T07:16:51.614Z,5.32
2022-12-25T07:19:19.184Z,5.29
2022-12-25T07:21:46.144Z,5.27
2022-12-25T07:24:18.364Z,5.28
2022-12-25T07:26:44.905Z,5.21
2022-12-25T07:29:11.482Z,5.11
2022-12-25T07:31:38.040Z,5.10
2022-12-25T07:34:04.605Z,5.07
2022-12-25T07:36:31.197Z,5.13
2022-12-25T07:38:57.734Z,5.13
2022-12-25T07:41:24.440Z,5.08
2022-12-25T07:43:58.326Z,5.05
2022-12-25T07:46:25.005Z,5.04
2022-12-25T07:48:51.878Z,5.06
2022-12-25T07:51:18.398Z,5.10
2022-12-25T07:53:45.222Z,5.03
2022-12-25T07:56:14.447Z,5.06
2022-12-25T07:58:41.744Z,5.13
2022-12-25T08:01:14.893Z,5.13
2022-12-25T08:03:41.658Z,5.08
2022-12-25T08:06:09.686Z,5.00
2022-12-25T08:08:37.519Z,5.03
2022-12-25T08:11:04.471Z,5.12
2022-12-25T08:13:31.815Z,5.21
2022-12-25T08:16:00.468Z,5.26
2022-12-25T08:18:30.091Z,5.33
2022-12-25T08:20:57.514Z,5.46
2022-12-25T08:23:24.084Z,5.53
2022-12-25T08:25:50.583Z,5.55
2022-12-25T08:28:17.056Z,5.57
2022-12-25T08:30:43.620Z,5.55
2022-12-25T08:33:10.223Z,5.53
2022-12-25T08:35:36.957Z,5.60
2022-12-25T08:38:03.449Z,5.74
2022-12-25T08:40:30.012Z,5.86
2022-12-25T08:42:57.205Z,5.91
2022-12-25T08:45:24.998Z,6.12
2022-12-25T08:47:55.545Z,6.24
2022-12-25T08:50:23.106Z,6.27
2022-12-25T08:52:50.293Z,6.31
2022-12-25T08:55:16.863Z,6.50
2022-12-25T08:57:43.684Z,6.72
2022-12-25T09:00:10.679Z,6.78
2022-12-25T09:02:37.366Z,6.91
2022-12-25T09:05:04.226Z,7.16
2022-12-25T09:07:30.726Z,7.10
2022-12-25T09:09:57.277Z,7.11
2022-12-25T09:12:23.981Z,7.33
2022-12-25T09:14:50.552Z,7.39
2022-12-25T09:17:17.064Z,7.49
2022-12-25T09:19:43.793Z,7.56
2022-12-25T09:22:10.344Z,7.64
2022-12-25T09:24:39.138Z,7.74
2022-12-25T09:27:05.634Z,7.84
2022-12-25T09:29:32.189Z,7.88
2022-12-25T09:31:58.690Z,7.92
2022-12-25T09:34:25.208Z,7.95
2022-12-25T09:36:51.711Z,8.01
2022-12-25T09:39:18.232Z,8.04
2022-12-25T09:42:34.386Z,8.14
2022-12-25T09:45:10.822Z,8.27
2022-12-25T09:47:41.787Z,8.46
2022-12-25T09:50:13.871Z,8.57
2022-12-25T09:52:48.852Z,8.68
2022-12-25T09:55:26.727Z,8.73
2022-12-25T09:58:00.437Z,8.83
2022-12-25T10:00:38.074Z,8.99
2022-12-25T10:03:32.887Z,9.22
2022-12-25T10:06:06.248Z,9.32
2022-12-25T10:09:04.742Z,9.56
2022-12-25T10:12:13.030Z,9.73
2022-12-25T10:15:01.212Z,9.83
2022-12-25T10:18:07.780Z,9.86
2022-12-25T10:20:50.897Z,10.14
2022-12-25T10:23:30.533Z,10.45
2022-12-25T10:25:57.209Z,10.53
2022-12-25T10:28:33.147Z,10.66
2022-12-25T10:31:05.667Z,10.79
2022-12-25T10:33:32.196Z,10.93
2022-12-25T10:35:59.495Z,11.02
2022-12-25T10:38:26.051Z,11.10
2022-12-25T10:41:07.760Z,11.09
2022-12-25T10:43:38.716Z,11.04
2022-12-25T10:46:12.043Z,11.03
2022-12-25T10:48:42.980Z,11.00
2022-12-25T10:51:09.606Z,11.04
2022-12-25T10:53:42.781Z,11.09
2022-12-25T10:56:18.040Z,11.23
2022-12-25T10:58:45.065Z,11.45
2022-12-25T11:01:13.111Z,11.52
2022-12-25T11:03:43.955Z,11.66
2022-12-25T11:06:25.746Z,11.81
2022-12-25T11:08:56.649Z,11.83
2022-12-25T11:11:24.180Z,11.89
2022-12-25T11:13:54.685Z,11.95
2022-12-25T11:16:35.469Z,11.98
2022-12-25T11:19:02.755Z,12.06
2022-12-25T11:21:34.782Z,12.05
2022-12-25T11:24:04.389Z,11.94
2022-12-25T11:26:52.358Z,12.03
2022-12-25T11:29:36.508Z,12.05
2022-12-25T11:32:05.647Z,12.05
2022-12-25T11:34:45.081Z,12.13
2022-12-25T11:37:18.236Z,12.32
2022-12-25T11:39:45.026Z,12.47
2022-12-25T11:42:17.472Z,12.53
2022-12-25T11:44:51.884Z,12.59
2022-12-25T11:47:35.075Z,12.78
2022-12-25T11:50:25.749Z,12.81
2022-12-25T11:52:53.410Z,12.97
2022-12-25T11:55:43.166Z,13.01
2022-12-25T11:58:34.340Z,13.02
2022-12-25T12:01:04.830Z,13.05
2022-12-25T12:03:36.126Z,12.91
2022-12-25T12:06:30.268Z,13.01
2022-12-25T12:09:17.438Z,13.06
2022-12-25T12:11:53.497Z,13.05
2022-12-25T12:14:39.485Z,13.18
2022-12-25T12:17:12.275Z,13.19
2022-12-25T12:19:39.092Z,13.34
2022-12-25T12:22:05.961Z,13.40
2022-12-25T12:24:37.990Z,13.47
2022-12-25T12:27:17.503Z,13.58
2022-12-25T12:29:47.853Z,13.69
2022-12-25T12:32:35.257Z,13.91
2022-12-25T12:35:13.136Z,13.93
2022-12-25T12:37:41.164Z,13.94
2022-12-25T12:40:27.697Z,13.86
2022-12-25T12:42:54.699Z,13.91
2022-12-25T12:45:28.345Z,13.97
2022-12-25T12:47:55.428Z,14.03
2022-12-25T12:50:36.095Z,14.02
2022-12-25T12:53:24.197Z,13.92
2022-12-25T12:55:52.607Z,13.77
2022-12-25T12:58:33.459Z,13.67
2022-12-25T13:01:18.367Z,13.64
2022-12-25T13:04:06.408Z,13.61
2022-12-25T13:06:43.773Z,13.52
2022-12-25T13:09:28.184Z,13.60
2022-12-25T13:11:54.795Z,13.80
2022-12-25T13:14:23.713Z,13.95
2022-12-25T13:16:53.425Z,14.09
2022-12-25T13:19:25.898Z,13.93
2022-12-25T13:21:53.899Z,13.82
2022-12-25T13:24:26.644Z,13.63
2022-12-25T13:26:53.776Z,13.64
2022-12-25T13:29:34.470Z,13.70
2022-12-25T13:32:03.585Z,13.56
2022-12-25T13:34:38.340Z,13.41
2022-12-25T13:37:10.247Z,13.29
2022-12-25T13:39:39.459Z,13.06
2022-12-25T13:42:09.381Z,12.94
2022-12-25T13:44:47.773Z,12.79
2022-12-25T13:47:17.037Z,12.78
2022-12-25T13:49:43.740Z,12.70
2022-12-25T13:52:13.234Z,12.71
2022-12-25T13:54:40.046Z,12.65
2022-12-25T13:57:15.317Z,12.57
2022-12-25T13:59:44.314Z,12.43
2022-12-25T14:02:22.623Z,12.21
2022-12-25T14:04:49.202Z,12.08
2022-12-25T14:07:21.045Z,11.99
2022-12-25T14:09:52.241Z,11.94
2022-12-25T14:12:19.867Z,11.91
2022-12-25T14:14:46.755Z,11.83
2022-12-25T14:17:13.362Z,11.73
2022-12-25T14:19:40.051Z,11.64
2022-12-25T14:22:22.514Z,11.48
2022-12-25T14:24:49.344Z,11.33
2022-12-25T14:27:27.960Z,11.30
2022-12-25T14:29:56.643Z,11.18
2022-12-25T14:32:27.266Z,11.13
2022-12-25T14:34:59.542Z,10.98
2022-12-25T14:37:29.482Z,10.93
2022-12-25T14:39:57.660Z,10.79
2022-12-25T14:42:27.910Z,10.74
2022-12-25T14:44:59.723Z,10.66
2022-12-25T14:47:27.469Z,10.61
2022-12-25T14:49:54.629Z,10.55
2022-12-25T14:52:21.137Z,10.40
2022-12-25T14:55:01.154Z,10.31
2022-12-25T14:57:32.114Z,10.22
2022-12-25T15:00:01.748Z,10.17
2022-12-25T15:02:40.293Z,10.07
2022-12-25T15:05:25.153Z,9.98
2022-12-25T15:07:59.859Z,9.83
2022-12-25T15:10:59.016Z,9.72
2022-12-25T15:13:14.530Z,9.50
2022-12-25T15:15:53.333Z,9.43
2022-12-25T15:18:22.217Z,9.37
2022-12-25T15:20:54.876Z,9.33
2022-12-25T15:23:21.947Z,9.22
2022-12-25T15:25:50.939Z,9.15
2022-12-25T15:28:17.448Z,9.05
2022-12-25T15:30:44.212Z,9.04
2022-12-25T15:33:14.391Z,8.92
2022-12-25T15:35:41.274Z,8.85
2022-12-25T15:38:07.835Z,8.84
2022-12-25T15:40:34.652Z,8.81
2022-12-25T15:43:06.365Z,8.72
2022-12-25T15:45:38.242Z,8.65
2022-12-25T15:48:04.856Z,8.65
2022-12-25T15:50:32.687Z,8.64
2022-12-25T15:52:59.245Z,8.62
2022-12-25T15:55:25.839Z,8.56
2022-12-25T15:57:54.537Z,8.61
2022-12-25T16:00:23.181Z,8.66
2022-12-25T16:02:50.378Z,8.68
2022-12-25T16:05:17.050Z,8.71
2022-12-25T16:07:43.726Z,8.71
2022-12-25T16:10:14.890Z,8.71
2022-12-25T16:12:41.520Z,8.72
2022-12-25T16:15:10.562Z,8.72
2022-12-25T16:17:37.061Z,8.79
2022-12-25T16:20:04.531Z,8.76
2022-12-25T16:22:31.859Z,8.89
2022-12-25T16:24:58.359Z,9.24
2022-12-25T16:27:25.276Z,9.31
2022-12-25T16:29:52.114Z,9.37
2022-12-25T16:32:18.639Z,9.37
2022-12-25T16:34:45.533Z,9.37
2022-12-25T16:37:12.017Z,9.33
2022-12-25T16:39:38.626Z,9.35
2022-12-25T16:42:05.302Z,9.27
2022-12-25T16:44:31.857Z,9.09
2022-12-25T16:46:58.464Z,8.98
2022-12-25T16:49:25.088Z,9.02
2022-12-25T16:51:51.673Z,9.10
2022-12-25T16:54:18.262Z,9.17
2022-12-25T16:56:44.767Z,9.22
2022-12-25T16:59:11.567Z,9.18
2022-12-25T17:01:43.156Z,9.19
2022-12-25T17:04:10.301Z,9.15
2022-12-25T17:06:37.438Z,9.08
2022-12-25T17:09:04.705Z,9.12
2022-12-25T17:11:32.295Z,9.12
2022-12-25T17:14:02.103Z,9.05
2022-12-25T17:16:31.347Z,9.04
2022-12-25T17:19:04.385Z,9.02
2022-12-25T17:21:35.096Z,9.00
2022-12-25T17:24:03.980Z,9.06
2022-12-25T17:26:32.202Z,9.03
2022-12-25T17:28:58.934Z,8.97
2022-12-25T17:31:25.453Z,8.90
2022-12-25T17:33:52.084Z,8.88
2022-12-25T17:36:20.950Z,8.91
2022-12-25T17:38:48.212Z,8.91
2022-12-25T17:41:16.552Z,9.01
2022-12-25T17:43:45.478Z,9.22
2022-12-25T17:46:20.636Z,9.25
2022-12-25T17:48:47.670Z,9.20
2022-12-25T17:51:16.527Z,9.36
2022-12-25T17:53:45.489Z,9.44
2022-12-25T17:56:13.061Z,9.35
2022-12-25T17:58:39.799Z,9.31
2022-12-25T18:01:13.671Z,9.25
2022-12-25T18:03:40.259Z,9.17
2022-12-25T18:06:09.259Z,9.17
2022-12-25T18:08:39.626Z,9.26
2022-12-25T18:11:09.475Z,9.27
2022-12-25T18:13:37.800Z,9.25
2022-12-25T18:16:07.106Z,9.16
2022-12-25T18:18:34.843Z,9.07
2022-12-25T18:21:02.166Z,9.11
2022-12-25T18:23:29.442Z,9.22
2022-12-25T18:25:56.396Z,9.27
2022-12-25T18:28:23.066Z,9.29
2022-12-25T18:30:49.638Z,9.25
2022-12-25T18:33:16.191Z,9.22
2022-12-25T18:35:44.108Z,9.21
2022-12-25T18:38:11.558Z,9.11
2022-12-25T18:40:46.994Z,9.15
2022-12-25T18:43:14.176Z,9.24
2022-12-25T18:45:41.611Z,9.30
2022-12-25T18:48:10.273Z,9.34
2022-12-25T18:50:40.109Z,9.24
2022-12-25T18:53:07.211Z,9.19
2022-12-25T18:55:35.570Z,9.15
2022-12-25T18:58:02.570Z,9.15
2022-12-25T19:00:29.167Z,9.10
2022-12-25T19:02:58.340Z,9.01
2022-12-25T19:05:25.636Z,8.95
2022-12-25T19:07:52.199Z,8.88
2022-12-25T19:10:18.817Z,8.82
2022-12-25T19:12:45.361Z,8.85
2022-12-25T19:15:12.227Z,8.77
2022-12-25T19:17:38.818Z,8.71
2022-12-25T19:20:06.180Z,8.70
2022-12-25T19:22:32.800Z,8.81
2022-12-25T19:24:59.361Z,8.82
2022-12-25T19:27:25.940Z,8.80
2022-12-25T19:29:52.691Z,8.77
2022-12-25T19:32:19.277Z,8.74
2022-12-25T19:34:45.825Z,8.73
2022-12-25T19:37:12.318Z,8.75
2022-12-25T19:39:39.769Z,8.68
2022-12-25T19:42:06.342Z,8.63
2022-12-25T19:44:32.892Z,8.67
2022-12-25T19:46:59.398Z,8.65
2022-12-25T19:49:25.911Z,8.66
2022-12-25T19:51:52.789Z,8.70
2022-12-25T19:54:20.703Z,8.68
2022-12-25T19:56:48.559Z,8.61
2022-12-25T19:59:15.933Z,8.65
2022-12-25T20:01:43.098Z,8.67
2022-12-25T20:04:10.354Z,8.66
2022-12-25T20:06:39.609Z,8.65
2022-12-25T20:09:15.272Z,8.63
2022-12-25T20:11:43.074Z,8.60
2022-12-25T20:14:12.697Z,8.67
2022-12-25T20:16:40.536Z,8.65
2022-12-25T20:19:07.505Z,8.65
2022-12-25T20:21:34.450Z,8.61
2022-12-25T20:24:00.978Z,8.59
2022-12-25T20:26:30.694Z,8.63
2022-12-25T20:28:58.133Z,8.62
2022-12-25T20:31:27.550Z,8.61
2022-12-25T20:33:59.638Z,8.59
2022-12-25T20:36:31.210Z,8.61
2022-12-25T20:39:02.782Z,8.59
2022-12-25T20:41:30.006Z,8.60
2022-12-25T20:43:57.751Z,8.52
2022-12-25T20:46:25.507Z,8.49
2022-12-25T20:48:52.846Z,8.49
2022-12-25T20:51:22.578Z,8.46
2022-12-25T20:53:50.096Z,8.46
2022-12-25T20:56:18.757Z,8.43
2022-12-25T20:58:45.442Z,8.41
2022-12-25T21:01:15.842Z,8.33
2022-12-25T21:03:43.384Z,8.26
2022-12-25T21:06:10.600Z,8.27
2022-12-25T21:08:37.843Z,8.13
2022-12-25T21:11:08.378Z,8.09
2022-12-25T21:13:41.199Z,8.08
2022-12-25T21:16:11.143Z,8.11
2022-12-25T21:18:38.409Z,8.18
2022-12-25T21:21:07.328Z,8.12
2022-12-25T21:23:36.082Z,8.00
2022-12-25T21:26:29.670Z,7.82
2022-12-25T21:29:00.052Z,7.66
2022-12-25T21:31:26.732Z,7.60
2022-12-25T21:33:55.318Z,7.61
2022-12-25T21:36:27.205Z,7.66
2022-12-25T21:39:01.035Z,7.60
2022-12-25T21:41:30.480Z,7.56
2022-12-25T21:43:57.197Z,7.47
2022-12-25T21:46:24.742Z,7.45
2022-12-25T21:48:51.656Z,7.38
2022-12-25T21:51:40.116Z,7.33
2022-12-25T21:54:07.462Z,7.27
2022-12-25T21:56:43.051Z,7.22
2022-12-25T21:59:13.334Z,7.21
2022-12-25T22:01:40.133Z,7.18
2022-12-25T22:04:08.498Z,7.19
2022-12-25T22:06:54.355Z,7.15
2022-12-25T22:09:21.761Z,7.10
2022-12-25T22:12:07.272Z,7.13
2022-12-25T22:14:57.015Z,7.06
2022-12-25T22:17:45.475Z,7.17
2022-12-25T22:20:16.749Z,7.14
2022-12-25T22:22:43.391Z,7.12
2022-12-25T22:25:10.819Z,7.13
2022-12-25T22:27:39.381Z,7.29
2022-12-25T22:30:09.122Z,7.31
2022-12-25T22:32:36.067Z,7.35
2022-12-25T22:35:02.944Z,7.44
2022-12-25T22:37:29.779Z,7.59
2022-12-25T22:39:56.305Z,7.71
2022-12-25T22:42:22.918Z,7.83
2022-12-25T22:44:49.462Z,7.91
2022-12-25T22:47:16.063Z,7.91
2022-12-25T22:49:42.660Z,7.83
2022-12-25T22:52:09.817Z,7.78
2022-12-25T22:54:37.092Z,7.71
2022-12-25T22:57:04.132Z,7.68
2022-12-25T22:59:30.898Z,7.61
2022-12-25T23:01:57.603Z,7.56
2022-12-25T23:04:26.036Z,7.55
2022-12-25T23:06:52.564Z,7.49
2022-12-25T23:09:24.887Z,7.46
2022-12-25T23:11:51.607Z,7.39
2022-12-25T23:14:36.692Z,7.43
2022-12-25T23:17:03.244Z,7.45
2022-12-25T23:19:48.361Z,7.46
2022-12-25T23:22:34.529Z,7.43
2022-12-25T23:25:19.646Z,7.49
2022-12-25T23:27:46.378Z,7.43
2022-12-25T23:30:15.535Z,7.39
2022-12-25T23:32:44.493Z,7.37
2022-12-25T23:35:11.762Z,7.37
2022-12-25T23:37:38.578Z,7.28
2022-12-25T23:40:05.879Z,7.22
2022-12-25T23:42:32.571Z,7.08
2022-12-25T23:44:59.112Z,7.05
2022-12-25T23:47:25.682Z,6.99
2022-12-25T23:49:52.389Z,7.06
2022-12-25T23:52:18.961Z,7.12
2022-12-25T23:54:45.518Z,7.22
2022-12-25T23:57:16.578Z,7.26
2022-12-25T23:59:43.221Z,7.34
